createdAt,value
2017-11-23T00:00:02.990Z,21.00
2017-11-23T00:00:34.631Z,21.01
2017-11-23T00:01:06.237Z,21.01
2017-11-23T00:01:37.849Z,21.00
2017-11-23T00:02:09.562Z,20.99
2017-11-23T00:02:41.212Z,20.98
2017-11-23T00:03:12.841Z,20.99
2017-11-23T00:03:44.482Z,21.00
2017-11-23T00:04:16.089Z,21.00
2017-11-23T00:04:47.700Z,21.02
2017-11-23T00:05:19.309Z,21.01
2017-11-23T00:05:51.049Z,21.01
2017-11-23T00:06:22.656Z,20.99
2017-11-23T00:06:54.261Z,21.00
2017-11-23T00:07:25.976Z,21.00
2017-11-23T00:07:57.617Z,20.97
2017-11-23T00:08:29.220Z,20.95
2017-11-23T00:09:00.869Z,20.94
2017-11-23T00:09:32.486Z,20.94
2017-11-23T00:10:04.134Z,20.96
2017-11-23T00:10:35.745Z,20.96
2017-11-23T00:11:07.471Z,20.95
2017-11-23T00:11:39.111Z,20.96
2017-11-23T00:12:10.721Z,20.93
2017-11-23T00:12:42.329Z,20.92
2017-11-23T00:13:14.037Z,20.92
2017-11-23T00:13:45.676Z,20.90
2017-11-23T00:14:17.321Z,20.90
2017-11-23T00:14:48.959Z,20.90
2017-11-23T00:15:20.610Z,20.92
2017-11-23T00:15:52.257Z,20.92
2017-11-23T00:16:23.887Z,20.92
2017-11-23T00:16:55.496Z,20.93
2017-11-23T00:17:27.108Z,20.93
2017-11-23T00:17:58.713Z,20.95
2017-11-23T00:18:30.456Z,20.95
2017-11-23T00:19:02.064Z,20.94
2017-11-23T00:19:33.749Z,20.94
2017-11-23T00:20:05.389Z,20.96
2017-11-23T00:20:37.249Z,20.97
2017-11-23T00:21:08.857Z,20.97
2017-11-23T00:21:40.464Z,20.98
2017-11-23T00:22:12.084Z,20.98
2017-11-23T00:22:43.701Z,20.99
2017-11-23T00:23:15.540Z,21.00
2017-11-23T00:23:47.183Z,20.99
2017-11-23T00:24:18.789Z,21.02
2017-11-23T00:24:50.409Z,21.00
2017-11-23T00:25:22.018Z,21.01
2017-11-23T00:25:53.668Z,21.01
2017-11-23T00:26:25.391Z,21.02
2017-11-23T00:26:57.033Z,21.02
2017-11-23T00:27:28.675Z,21.03
2017-11-23T00:28:00.317Z,21.04
2017-11-23T00:28:31.923Z,21.05
2017-11-23T00:29:03.538Z,21.05
2017-11-23T00:29:35.153Z,21.07
2017-11-23T00:30:06.887Z,21.08
2017-11-23T00:30:38.526Z,21.08
2017-11-23T00:31:10.172Z,21.09
2017-11-23T00:31:41.811Z,21.10
2017-11-23T00:32:13.634Z,21.11
2017-11-23T00:32:45.241Z,21.12
2017-11-23T00:33:16.844Z,21.14
2017-11-23T00:33:48.685Z,21.13
2017-11-23T00:34:20.327Z,21.14
2017-11-23T00:34:51.937Z,21.15
2017-11-23T00:35:23.544Z,21.14
2017-11-23T00:35:55.156Z,21.13
2017-11-23T00:36:26.820Z,21.14
2017-11-23T00:36:58.537Z,21.13
2017-11-23T00:37:30.178Z,21.13
2017-11-23T00:38:01.789Z,21.15
2017-11-23T00:38:33.396Z,21.14
2017-11-23T00:39:05.004Z,21.15
2017-11-23T00:39:36.609Z,21.15
2017-11-23T00:40:08.225Z,21.16
2017-11-23T00:40:39.852Z,21.16
2017-11-23T00:41:11.658Z,21.17
2017-11-23T00:41:43.320Z,21.16
2017-11-23T00:42:14.956Z,21.16
2017-11-23T00:42:46.565Z,21.18
2017-11-23T00:43:18.236Z,21.17
2017-11-23T00:43:49.843Z,21.16
2017-11-23T00:44:21.449Z,21.14
2017-11-23T00:44:53.166Z,21.17
2017-11-23T00:45:24.806Z,21.17
2017-11-23T00:45:56.418Z,21.18
2017-11-23T00:46:28.090Z,21.19
2017-11-23T00:46:59.701Z,21.20
2017-11-23T00:47:31.312Z,21.20
2017-11-23T00:48:02.917Z,21.20
2017-11-23T00:48:34.529Z,21.18
2017-11-23T00:49:06.301Z,21.17
2017-11-23T00:49:37.943Z,21.18
2017-11-23T00:50:09.584Z,21.16
2017-11-23T00:50:41.193Z,21.15
2017-11-23T00:51:12.812Z,21.15
2017-11-23T00:51:44.420Z,21.13
2017-11-23T00:52:16.156Z,21.12
2017-11-23T00:52:47.761Z,21.11
2017-11-23T00:53:19.380Z,21.12
2017-11-23T00:53:51.036Z,21.12
2017-11-23T00:54:22.645Z,21.13
2017-11-23T00:54:54.361Z,21.14
2017-11-23T00:55:26.004Z,21.13
2017-11-23T00:55:57.646Z,21.13
2017-11-23T00:56:29.287Z,21.10
2017-11-23T00:57:00.896Z,21.10
2017-11-23T00:57:32.502Z,21.10
2017-11-23T00:58:04.112Z,21.08
2017-11-23T00:58:35.855Z,21.07
2017-11-23T00:59:07.517Z,21.07
2017-11-23T00:59:39.138Z,21.06
2017-11-23T01:00:10.750Z,21.07
2017-11-23T01:00:42.364Z,21.07
2017-11-23T01:01:13.980Z,21.04
2017-11-23T01:01:45.706Z,21.04
2017-11-23T01:02:17.348Z,21.02
2017-11-23T01:02:48.957Z,21.03
2017-11-23T01:03:20.569Z,21.03
2017-11-23T01:03:52.173Z,21.05
2017-11-23T01:04:23.825Z,21.09
2017-11-23T01:04:55.432Z,21.10
2017-11-23T01:05:27.040Z,21.13
2017-11-23T01:05:58.645Z,21.15
2017-11-23T01:06:30.485Z,21.15
2017-11-23T01:07:02.124Z,21.15
2017-11-23T01:07:33.767Z,21.16
2017-11-23T01:08:05.409Z,21.16
2017-11-23T01:08:37.051Z,21.17
2017-11-23T01:09:08.693Z,21.17
2017-11-23T01:09:40.340Z,21.16
2017-11-23T01:10:11.977Z,21.17
2017-11-23T01:10:43.618Z,21.15
2017-11-23T01:11:15.225Z,21.13
2017-11-23T01:11:46.832Z,21.15
2017-11-23T01:12:18.543Z,21.14
2017-11-23T01:12:50.186Z,21.16
2017-11-23T01:13:21.793Z,21.14
2017-11-23T01:13:53.415Z,21.13
2017-11-23T01:14:25.021Z,21.11
2017-11-23T01:14:56.679Z,21.12
2017-11-23T01:15:28.396Z,21.09
2017-11-23T01:16:00.006Z,21.11
2017-11-23T01:16:31.613Z,21.11
2017-11-23T01:17:03.224Z,21.10
2017-11-23T01:17:34.963Z,21.10
2017-11-23T01:18:06.573Z,21.06
2017-11-23T01:18:38.180Z,21.08
2017-11-23T01:19:09.789Z,21.07
2017-11-23T01:19:41.530Z,21.05
2017-11-23T01:20:13.176Z,21.05
2017-11-23T01:20:44.813Z,21.04
2017-11-23T01:21:16.426Z,21.04
2017-11-23T01:21:48.865Z,21.05
2017-11-23T01:22:26.257Z,21.05
2017-11-23T01:22:57.868Z,21.05
2017-11-23T01:23:29.782Z,21.05
2017-11-23T01:24:01.390Z,21.05
2017-11-23T01:24:32.996Z,21.04
2017-11-23T01:25:04.645Z,21.03
2017-11-23T01:25:36.248Z,21.01
2017-11-23T01:26:07.857Z,20.99
2017-11-23T01:26:39.465Z,21.00
2017-11-23T01:27:11.100Z,20.99
2017-11-23T01:27:42.917Z,20.94
2017-11-23T01:28:14.560Z,21.00
2017-11-23T01:28:46.169Z,20.99
2017-11-23T01:29:17.776Z,21.00
2017-11-23T01:29:49.385Z,20.98
2017-11-23T01:30:21.128Z,20.99
2017-11-23T01:30:52.776Z,20.99
2017-11-23T01:31:24.409Z,20.98
2017-11-23T01:31:56.052Z,20.98
2017-11-23T01:32:27.694Z,20.99
2017-11-23T01:32:59.304Z,20.98
2017-11-23T01:33:30.918Z,20.98
2017-11-23T01:34:02.524Z,20.98
2017-11-23T01:34:34.263Z,20.98
2017-11-23T01:35:05.912Z,20.96
2017-11-23T01:35:37.549Z,20.95
2017-11-23T01:36:09.188Z,20.95
2017-11-23T01:36:40.841Z,20.95
2017-11-23T01:37:12.472Z,20.94
2017-11-23T01:37:44.113Z,20.89
2017-11-23T01:38:15.720Z,20.89
2017-11-23T01:38:47.332Z,20.88
2017-11-23T01:39:19.040Z,20.88
2017-11-23T01:39:50.682Z,20.87
2017-11-23T01:40:22.288Z,20.88
2017-11-23T01:40:53.901Z,20.89
2017-11-23T01:41:25.505Z,20.89
2017-11-23T01:41:57.108Z,20.88
2017-11-23T01:42:28.890Z,20.89
2017-11-23T01:43:00.533Z,20.89
2017-11-23T01:43:32.175Z,20.89
2017-11-23T01:44:03.817Z,20.88
2017-11-23T01:44:35.428Z,20.89
2017-11-23T01:45:07.041Z,20.88
2017-11-23T01:45:38.649Z,20.88
2017-11-23T01:46:10.385Z,20.87
2017-11-23T01:46:42.032Z,20.86
2017-11-23T01:47:13.667Z,20.85
2017-11-23T01:47:45.310Z,20.85
2017-11-23T01:48:16.973Z,20.84
2017-11-23T01:48:48.593Z,20.83
2017-11-23T01:49:20.237Z,20.82
2017-11-23T01:49:51.877Z,20.82
2017-11-23T01:50:23.520Z,20.83
2017-11-23T01:50:55.161Z,20.82
2017-11-23T01:51:26.820Z,20.82
2017-11-23T01:51:58.444Z,20.81
2017-11-23T01:52:30.049Z,20.82
2017-11-23T01:53:01.728Z,20.80
2017-11-23T01:53:33.371Z,20.80
2017-11-23T01:54:05.012Z,20.80
2017-11-23T01:54:36.617Z,20.83
2017-11-23T01:55:08.225Z,20.82
2017-11-23T01:55:39.844Z,20.83
2017-11-23T01:56:11.580Z,20.82
2017-11-23T01:56:43.184Z,20.83
2017-11-23T01:57:14.788Z,20.82
2017-11-23T01:57:46.506Z,20.82
2017-11-23T01:58:18.160Z,20.81
2017-11-23T01:58:49.813Z,20.80
2017-11-23T01:59:21.473Z,20.80
2017-11-23T01:59:53.093Z,20.80
2017-11-23T02:00:25.027Z,20.80
2017-11-23T02:00:56.653Z,20.80
2017-11-23T02:01:28.262Z,20.79
2017-11-23T02:01:59.873Z,20.80
2017-11-23T02:02:31.590Z,20.79
2017-11-23T02:03:03.201Z,20.81
2017-11-23T02:03:34.819Z,20.83
2017-11-23T02:04:06.469Z,20.82
2017-11-23T02:04:38.077Z,20.82
2017-11-23T02:05:09.801Z,20.83
2017-11-23T02:05:41.442Z,20.83
2017-11-23T02:06:13.284Z,20.81
2017-11-23T02:06:44.903Z,20.83
2017-11-23T02:07:16.509Z,20.85
2017-11-23T02:07:48.116Z,20.84
2017-11-23T02:08:19.958Z,20.84
2017-11-23T02:08:51.620Z,20.86
2017-11-23T02:09:23.242Z,20.86
2017-11-23T02:09:54.884Z,20.88
2017-11-23T02:10:26.525Z,20.86
2017-11-23T02:10:58.144Z,20.87
2017-11-23T02:11:29.753Z,20.86
2017-11-23T02:12:01.413Z,20.84
2017-11-23T02:12:33.022Z,20.85
2017-11-23T02:13:04.737Z,20.84
2017-11-23T02:13:36.377Z,20.85
2017-11-23T02:14:08.046Z,20.87
2017-11-23T02:14:39.669Z,20.86
2017-11-23T02:15:11.284Z,20.86
2017-11-23T02:15:42.901Z,20.88
2017-11-23T02:16:14.512Z,20.89
2017-11-23T02:16:46.129Z,20.88
2017-11-23T02:17:17.870Z,20.88
2017-11-23T02:17:49.512Z,20.90
2017-11-23T02:18:21.154Z,20.90
2017-11-23T02:18:52.796Z,20.88
2017-11-23T02:19:24.447Z,20.90
2017-11-23T02:19:56.080Z,20.89
2017-11-23T02:20:27.722Z,20.90
2017-11-23T02:20:59.364Z,20.89
2017-11-23T02:21:31.005Z,20.89
2017-11-23T02:22:02.647Z,20.90
2017-11-23T02:22:34.293Z,20.90
2017-11-23T02:23:05.929Z,20.92
2017-11-23T02:23:37.582Z,20.90
2017-11-23T02:24:09.215Z,20.89
2017-11-23T02:24:40.857Z,20.89
2017-11-23T02:25:12.499Z,20.88
2017-11-23T02:25:44.141Z,20.90
2017-11-23T02:26:15.783Z,20.90
2017-11-23T02:26:47.428Z,20.88
2017-11-23T02:27:19.098Z,20.88
2017-11-23T02:27:50.716Z,20.89
2017-11-23T02:28:22.351Z,20.87
2017-11-23T02:28:53.993Z,20.87
2017-11-23T02:29:25.634Z,20.87
2017-11-23T02:29:57.273Z,20.87
2017-11-23T02:30:28.916Z,20.88
2017-11-23T02:31:00.561Z,20.88
2017-11-23T02:31:32.202Z,20.87
2017-11-23T02:32:03.842Z,20.87
2017-11-23T02:32:35.488Z,20.87
2017-11-23T02:33:07.128Z,20.85
2017-11-23T02:33:38.769Z,20.85
2017-11-23T02:34:10.411Z,20.84
2017-11-23T02:34:42.056Z,20.84
2017-11-23T02:35:13.699Z,20.84
2017-11-23T02:35:45.338Z,20.84
2017-11-23T02:36:16.950Z,20.83
2017-11-23T02:36:48.580Z,20.82
2017-11-23T02:37:20.197Z,20.81
2017-11-23T02:37:51.804Z,20.82
2017-11-23T02:38:23.461Z,20.82
2017-11-23T02:38:55.194Z,20.83
2017-11-23T02:39:26.831Z,20.84
2017-11-23T02:39:58.446Z,20.85
2017-11-23T02:40:30.057Z,20.84
2017-11-23T02:41:01.661Z,20.85
2017-11-23T02:41:33.401Z,20.86
2017-11-23T02:42:05.014Z,20.84
2017-11-23T02:42:36.625Z,20.85
2017-11-23T02:43:08.505Z,20.84
2017-11-23T02:43:40.273Z,20.85
2017-11-23T02:44:11.895Z,20.85
2017-11-23T02:44:43.511Z,20.83
2017-11-23T02:45:15.126Z,20.83
2017-11-23T02:45:46.741Z,20.81
2017-11-23T02:46:18.356Z,20.82
2017-11-23T02:46:49.969Z,20.81
2017-11-23T02:47:21.581Z,20.81
2017-11-23T02:47:53.189Z,20.82
2017-11-23T02:48:24.818Z,20.82
2017-11-23T02:48:56.429Z,20.85
2017-11-23T02:49:28.048Z,20.86
2017-11-23T02:49:59.667Z,20.86
2017-11-23T02:50:31.310Z,20.88
2017-11-23T02:51:02.920Z,20.86
2017-11-23T02:51:34.594Z,20.86
2017-11-23T02:52:06.262Z,20.85
2017-11-23T02:52:37.887Z,20.84
2017-11-23T02:53:09.517Z,20.85
2017-11-23T02:53:41.162Z,20.85
2017-11-23T02:54:12.773Z,20.84
2017-11-23T02:54:44.382Z,20.84
2017-11-23T02:55:15.992Z,20.82
2017-11-23T02:55:47.729Z,20.81
2017-11-23T02:56:19.333Z,20.80
2017-11-23T02:56:50.944Z,20.80
2017-11-23T02:57:22.596Z,20.79
2017-11-23T02:57:54.201Z,20.78
2017-11-23T02:58:25.939Z,20.76
2017-11-23T02:58:57.550Z,20.76
2017-11-23T02:59:29.224Z,20.77
2017-11-23T03:00:00.867Z,20.76
2017-11-23T03:00:32.506Z,20.75
2017-11-23T03:01:04.113Z,20.76
2017-11-23T03:01:35.729Z,20.76
2017-11-23T03:02:07.349Z,20.75
2017-11-23T03:02:39.027Z,20.75
2017-11-23T03:03:10.636Z,20.75
2017-11-23T03:03:42.253Z,20.77
2017-11-23T03:04:14.000Z,20.77
2017-11-23T03:04:45.608Z,20.80
2017-11-23T03:05:17.217Z,20.86
2017-11-23T03:05:48.868Z,20.86
2017-11-23T03:06:20.477Z,20.84
2017-11-23T03:06:52.209Z,20.80
2017-11-23T03:07:24.038Z,20.76
2017-11-23T03:07:55.649Z,20.74
2017-11-23T03:08:27.297Z,20.73
2017-11-23T03:08:58.904Z,20.70
2017-11-23T03:09:30.726Z,20.68
2017-11-23T03:10:02.373Z,20.67
2017-11-23T03:10:34.009Z,20.68
2017-11-23T03:11:05.657Z,20.68
2017-11-23T03:11:37.293Z,20.68
2017-11-23T03:12:08.935Z,20.68
2017-11-23T03:12:40.545Z,20.67
2017-11-23T03:13:12.223Z,20.65
2017-11-23T03:13:43.861Z,20.65
2017-11-23T03:14:15.504Z,20.63
2017-11-23T03:14:47.145Z,20.63
2017-11-23T03:15:18.787Z,20.64
2017-11-23T03:15:50.397Z,20.62
2017-11-23T03:16:22.005Z,20.62
2017-11-23T03:16:53.660Z,20.63
2017-11-23T03:17:25.264Z,20.65
2017-11-23T03:17:56.996Z,20.63
2017-11-23T03:18:28.604Z,20.63
2017-11-23T03:19:00.217Z,20.63
2017-11-23T03:19:31.824Z,20.63
2017-11-23T03:20:03.564Z,20.62
2017-11-23T03:20:35.177Z,20.63
2017-11-23T03:21:06.792Z,20.66
2017-11-23T03:21:38.396Z,20.67
2017-11-23T03:22:10.041Z,20.67
2017-11-23T03:22:41.773Z,20.68
2017-11-23T03:23:13.416Z,20.68
2017-11-23T03:23:45.058Z,20.68
2017-11-23T03:24:16.665Z,20.66
2017-11-23T03:24:48.344Z,20.66
2017-11-23T03:25:19.983Z,20.67
2017-11-23T03:25:51.593Z,20.67
2017-11-23T03:26:23.199Z,20.68
2017-11-23T03:26:54.908Z,20.67
2017-11-23T03:27:26.514Z,20.68
2017-11-23T03:27:58.121Z,20.67
2017-11-23T03:28:29.835Z,20.66
2017-11-23T03:29:01.479Z,20.64
2017-11-23T03:29:33.118Z,20.64
2017-11-23T03:30:04.786Z,20.65
2017-11-23T03:30:36.409Z,20.66
2017-11-23T03:31:08.054Z,20.68
2017-11-23T03:31:39.685Z,20.66
2017-11-23T03:32:11.329Z,20.67
2017-11-23T03:32:42.936Z,20.68
2017-11-23T03:33:14.548Z,20.69
2017-11-23T03:33:46.156Z,20.70
2017-11-23T03:34:17.896Z,20.70
2017-11-23T03:34:49.537Z,20.69
2017-11-23T03:35:21.184Z,20.71
2017-11-23T03:35:52.821Z,20.70
2017-11-23T03:36:24.479Z,20.69
2017-11-23T03:36:56.144Z,20.69
2017-11-23T03:37:27.748Z,20.70
2017-11-23T03:37:59.388Z,20.71
2017-11-23T03:38:30.992Z,20.70
2017-11-23T03:39:02.608Z,20.65
2017-11-23T03:39:34.218Z,20.71
2017-11-23T03:40:05.864Z,20.71
2017-11-23T03:40:37.606Z,20.70
2017-11-23T03:41:09.241Z,20.72
2017-11-23T03:41:40.882Z,20.73
2017-11-23T03:42:12.524Z,20.74
2017-11-23T03:42:44.156Z,20.75
2017-11-23T03:43:15.765Z,20.75
2017-11-23T03:43:47.369Z,20.76
2017-11-23T03:44:19.092Z,20.75
2017-11-23T03:44:50.732Z,20.77
2017-11-23T03:45:22.392Z,20.78
2017-11-23T03:45:54.004Z,20.79
2017-11-23T03:46:25.609Z,20.83
2017-11-23T03:46:57.220Z,20.90
2017-11-23T03:47:28.952Z,20.98
2017-11-23T03:48:00.584Z,21.07
2017-11-23T03:48:32.227Z,21.08
2017-11-23T03:49:03.838Z,21.11
2017-11-23T03:49:35.444Z,21.12
2017-11-23T03:50:07.071Z,21.16
2017-11-23T03:50:38.684Z,21.17
2017-11-23T03:51:10.301Z,21.13
2017-11-23T03:51:41.913Z,21.07
2017-11-23T03:52:13.516Z,21.02
2017-11-23T03:52:45.362Z,21.02
2017-11-23T03:53:17.004Z,20.98
2017-11-23T03:53:48.646Z,20.95
2017-11-23T03:54:20.287Z,20.95
2017-11-23T03:54:51.901Z,20.90
2017-11-23T03:55:23.512Z,20.85
2017-11-23T03:55:55.169Z,20.83
2017-11-23T03:56:26.789Z,20.85
2017-11-23T03:56:58.396Z,20.87
2017-11-23T03:57:30.002Z,20.90
2017-11-23T03:58:01.609Z,20.94
2017-11-23T03:58:34.078Z,20.98
2017-11-23T03:59:05.702Z,21.01
2017-11-23T03:59:37.321Z,21.03
2017-11-23T04:00:08.958Z,21.04
2017-11-23T04:00:40.604Z,21.01
2017-11-23T04:01:12.249Z,20.96
2017-11-23T04:01:43.889Z,20.91
2017-11-23T04:02:15.530Z,20.87
2017-11-23T04:02:47.137Z,20.85
2017-11-23T04:03:18.748Z,20.83
2017-11-23T04:03:50.405Z,20.80
2017-11-23T04:04:22.021Z,20.80
2017-11-23T04:04:53.641Z,20.77
2017-11-23T04:05:25.382Z,20.76
2017-11-23T04:05:56.990Z,20.74
2017-11-23T04:06:28.601Z,20.72
2017-11-23T04:07:00.204Z,20.69
2017-11-23T04:07:31.813Z,20.70
2017-11-23T04:08:03.420Z,20.68
2017-11-23T04:08:35.028Z,20.68
2017-11-23T04:09:06.681Z,20.68
2017-11-23T04:09:38.517Z,20.67
2017-11-23T04:10:10.121Z,20.65
2017-11-23T04:10:41.724Z,20.65
2017-11-23T04:11:13.443Z,20.65
2017-11-23T04:11:45.052Z,20.63
2017-11-23T04:12:16.657Z,20.62
2017-11-23T04:12:48.268Z,20.61
2017-11-23T04:13:19.873Z,20.63
2017-11-23T04:13:51.485Z,20.63
2017-11-23T04:14:23.133Z,20.61
2017-11-23T04:14:54.737Z,20.60
2017-11-23T04:15:26.578Z,20.59
2017-11-23T04:15:58.224Z,20.60
2017-11-23T04:16:29.861Z,20.60
2017-11-23T04:17:01.508Z,20.60
2017-11-23T04:17:33.147Z,20.62
2017-11-23T04:18:04.757Z,20.61
2017-11-23T04:18:36.360Z,20.59
2017-11-23T04:19:08.071Z,20.59
2017-11-23T04:19:39.712Z,20.60
2017-11-23T04:20:11.342Z,20.59
2017-11-23T04:20:42.949Z,20.56
2017-11-23T04:21:14.557Z,20.57
2017-11-23T04:21:46.281Z,20.55
2017-11-23T04:22:17.937Z,20.55
2017-11-23T04:22:49.562Z,20.55
2017-11-23T04:23:21.169Z,20.53
2017-11-23T04:23:52.789Z,20.51
2017-11-23T04:24:24.393Z,20.52
2017-11-23T04:24:56.132Z,20.50
2017-11-23T04:25:27.776Z,20.49
2017-11-23T04:26:00.114Z,20.50
2017-11-23T04:26:31.980Z,20.50
2017-11-23T04:27:03.608Z,20.51
2017-11-23T04:27:35.221Z,20.50
2017-11-23T04:28:06.845Z,20.48
2017-11-23T04:28:38.472Z,20.48
2017-11-23T04:29:10.189Z,20.49
2017-11-23T04:29:41.831Z,20.49
2017-11-23T04:30:13.443Z,20.51
2017-11-23T04:30:45.049Z,20.49
2017-11-23T04:31:16.656Z,20.50
2017-11-23T04:31:48.260Z,20.50
2017-11-23T04:32:19.869Z,20.48
2017-11-23T04:32:51.512Z,20.47
2017-11-23T04:33:23.325Z,20.46
2017-11-23T04:33:54.966Z,20.45
2017-11-23T04:34:26.572Z,20.45
2017-11-23T04:34:58.180Z,20.45
2017-11-23T04:35:29.892Z,20.44
2017-11-23T04:36:01.501Z,20.44
2017-11-23T04:36:33.119Z,20.43
2017-11-23T04:37:04.764Z,20.44
2017-11-23T04:37:36.369Z,20.43
2017-11-23T04:38:08.101Z,20.44
2017-11-23T04:38:39.743Z,20.44
2017-11-23T04:39:11.353Z,20.46
2017-11-23T04:39:43.334Z,20.44
2017-11-23T04:40:14.940Z,20.45
2017-11-23T04:40:46.545Z,20.44
2017-11-23T04:41:18.281Z,20.42
2017-11-23T04:41:49.898Z,20.41
2017-11-23T04:42:21.505Z,20.39
2017-11-23T04:42:53.113Z,20.39
2017-11-23T04:43:24.827Z,20.38
2017-11-23T04:43:56.437Z,20.40
2017-11-23T04:44:28.040Z,20.45
2017-11-23T04:44:59.685Z,20.47
2017-11-23T04:45:31.395Z,20.46
2017-11-23T04:46:03.037Z,20.45
2017-11-23T04:46:34.682Z,20.44
2017-11-23T04:47:06.320Z,20.41
2017-11-23T04:47:37.962Z,20.41
2017-11-23T04:48:09.605Z,20.47
2017-11-23T04:48:41.229Z,20.55
2017-11-23T04:49:12.849Z,20.57
2017-11-23T04:49:44.456Z,20.52
2017-11-23T04:50:16.108Z,20.47
2017-11-23T04:50:47.716Z,20.43
2017-11-23T04:51:19.457Z,20.39
2017-11-23T04:51:51.098Z,20.35
2017-11-23T04:52:22.740Z,20.34
2017-11-23T04:52:54.381Z,20.34
2017-11-23T04:53:25.987Z,20.33
2017-11-23T04:53:57.597Z,20.32
2017-11-23T04:54:29.307Z,20.34
2017-11-23T04:55:00.949Z,20.34
2017-11-23T04:55:32.597Z,20.35
2017-11-23T04:56:04.233Z,20.35
2017-11-23T04:56:35.874Z,20.35
2017-11-23T04:57:07.484Z,20.35
2017-11-23T04:57:39.097Z,20.37
2017-11-23T04:58:10.701Z,20.37
2017-11-23T04:58:42.443Z,20.39
2017-11-23T04:59:14.085Z,20.40
2017-11-23T04:59:45.726Z,20.40
2017-11-23T05:00:17.376Z,20.41
2017-11-23T05:00:49.021Z,20.43
2017-11-23T05:01:20.651Z,20.43
2017-11-23T05:01:52.257Z,20.45
2017-11-23T05:02:23.869Z,20.46
2017-11-23T05:02:55.579Z,20.48
2017-11-23T05:03:27.220Z,20.48
2017-11-23T05:03:58.824Z,20.49
2017-11-23T05:04:30.437Z,20.47
2017-11-23T05:05:02.045Z,20.45
2017-11-23T05:05:33.656Z,20.45
2017-11-23T05:06:05.429Z,20.46
2017-11-23T05:06:37.071Z,20.45
2017-11-23T05:07:08.715Z,20.45
2017-11-23T05:07:40.356Z,20.43
2017-11-23T05:08:11.997Z,20.42
2017-11-23T05:08:43.605Z,20.40
2017-11-23T05:09:15.232Z,20.40
2017-11-23T05:09:46.849Z,20.40
2017-11-23T05:10:18.465Z,20.38
2017-11-23T05:10:50.207Z,20.40
2017-11-23T05:11:21.852Z,20.38
2017-11-23T05:11:53.466Z,20.38
2017-11-23T05:12:25.072Z,20.38
2017-11-23T05:12:56.676Z,20.40
2017-11-23T05:13:28.416Z,20.40
2017-11-23T05:14:00.022Z,20.40
2017-11-23T05:14:31.632Z,20.40
2017-11-23T05:15:03.341Z,20.39
2017-11-23T05:15:34.985Z,20.38
2017-11-23T05:16:06.616Z,20.38
2017-11-23T05:16:38.272Z,20.39
2017-11-23T05:17:09.910Z,20.41
2017-11-23T05:17:41.522Z,20.38
2017-11-23T05:18:13.125Z,20.38
2017-11-23T05:18:44.835Z,20.38
2017-11-23T05:19:16.444Z,20.37
2017-11-23T05:19:48.048Z,20.37
2017-11-23T05:20:19.761Z,20.36
2017-11-23T05:20:51.368Z,20.36
2017-11-23T05:21:22.972Z,20.36
2017-11-23T05:21:54.686Z,20.37
2017-11-23T05:22:26.292Z,20.37
2017-11-23T05:22:57.914Z,20.38
2017-11-23T05:23:29.521Z,20.38
2017-11-23T05:24:01.251Z,20.41
2017-11-23T05:24:32.897Z,20.38
2017-11-23T05:25:04.545Z,20.40
2017-11-23T05:25:36.178Z,20.41
2017-11-23T05:26:07.789Z,20.41
2017-11-23T05:26:39.396Z,20.41
2017-11-23T05:27:11.004Z,20.42
2017-11-23T05:27:42.612Z,20.42
2017-11-23T05:28:14.217Z,20.43
2017-11-23T05:28:45.860Z,20.41
2017-11-23T05:29:17.514Z,20.41
2017-11-23T05:29:49.120Z,20.42
2017-11-23T05:30:20.957Z,20.43
2017-11-23T05:30:52.599Z,20.44
2017-11-23T05:31:24.244Z,20.45
2017-11-23T05:31:55.883Z,20.44
2017-11-23T05:32:27.525Z,20.47
2017-11-23T05:32:59.166Z,20.45
2017-11-23T05:33:30.811Z,20.45
2017-11-23T05:34:02.450Z,20.45
2017-11-23T05:34:34.057Z,20.44
2017-11-23T05:35:05.733Z,20.44
2017-11-23T05:35:37.341Z,20.45
2017-11-23T05:36:08.954Z,20.45
2017-11-23T05:36:40.560Z,20.45
2017-11-23T05:37:12.301Z,20.45
2017-11-23T05:37:43.943Z,20.46
2017-11-23T05:38:15.585Z,20.46
2017-11-23T05:38:47.233Z,20.48
2017-11-23T05:39:18.868Z,20.48
2017-11-23T05:39:50.472Z,20.48
2017-11-23T05:40:22.152Z,20.49
2017-11-23T05:40:53.794Z,20.50
2017-11-23T05:41:25.405Z,20.51
2017-11-23T05:41:57.013Z,20.50
2017-11-23T05:42:28.621Z,20.50
2017-11-23T05:43:00.363Z,20.51
2017-11-23T05:43:31.969Z,20.51
2017-11-23T05:44:03.576Z,20.49
2017-11-23T05:44:35.288Z,20.48
2017-11-23T05:45:06.952Z,20.48
2017-11-23T05:45:38.571Z,20.49
2017-11-23T05:46:10.180Z,20.52
2017-11-23T05:46:41.789Z,20.53
2017-11-23T05:47:13.497Z,20.53
2017-11-23T05:47:45.106Z,20.52
2017-11-23T05:48:16.725Z,20.53
2017-11-23T05:48:48.328Z,20.53
2017-11-23T05:49:20.066Z,20.53
2017-11-23T05:49:51.707Z,20.55
2017-11-23T05:50:23.367Z,20.53
2017-11-23T05:50:54.991Z,20.52
2017-11-23T05:51:26.601Z,20.52
2017-11-23T05:51:58.213Z,20.53
2017-11-23T05:52:29.824Z,20.53
2017-11-23T05:53:01.559Z,20.53
2017-11-23T05:53:33.163Z,20.54
2017-11-23T05:54:04.768Z,20.53
2017-11-23T05:54:36.484Z,20.52
2017-11-23T05:55:08.125Z,20.54
2017-11-23T05:55:39.792Z,20.53
2017-11-23T05:56:11.410Z,20.51
2017-11-23T05:56:43.052Z,20.52
2017-11-23T05:57:14.659Z,20.53
2017-11-23T05:57:46.281Z,20.54
2017-11-23T05:58:17.892Z,20.53
2017-11-23T05:58:49.620Z,20.54
2017-11-23T05:59:21.228Z,20.53
2017-11-23T05:59:52.837Z,20.54
2017-11-23T06:00:24.445Z,20.55
2017-11-23T06:00:56.088Z,20.55
2017-11-23T06:01:27.828Z,20.55
2017-11-23T06:01:59.471Z,20.55
2017-11-23T06:02:31.961Z,20.54
2017-11-23T06:03:03.642Z,20.54
2017-11-23T06:03:35.268Z,20.54
2017-11-23T06:04:06.915Z,20.53
2017-11-23T06:04:38.602Z,20.54
2017-11-23T06:05:11.078Z,20.54
2017-11-23T06:05:42.807Z,20.54
2017-11-23T06:06:14.423Z,20.53
2017-11-23T06:06:46.029Z,20.55
2017-11-23T06:07:17.632Z,20.55
2017-11-23T06:07:50.433Z,20.56
2017-11-23T06:08:22.045Z,20.55
2017-11-23T06:08:53.712Z,20.54
2017-11-23T06:09:26.074Z,20.56
2017-11-23T06:09:58.588Z,20.53
2017-11-23T06:10:30.345Z,20.53
2017-11-23T06:11:01.994Z,20.52
2017-11-23T06:11:33.633Z,20.53
2017-11-23T06:12:05.283Z,20.53
2017-11-23T06:12:36.916Z,20.52
2017-11-23T06:13:08.596Z,20.54
2017-11-23T06:13:40.203Z,20.51
2017-11-23T06:14:12.149Z,20.49
2017-11-23T06:14:43.757Z,20.51
2017-11-23T06:15:15.435Z,20.53
2017-11-23T06:15:47.061Z,20.51
2017-11-23T06:16:18.669Z,20.50
2017-11-23T06:16:50.275Z,20.50
2017-11-23T06:17:21.908Z,20.49
2017-11-23T06:17:53.644Z,20.52
2017-11-23T06:18:25.284Z,20.53
2017-11-23T06:18:56.893Z,20.51
2017-11-23T06:19:28.506Z,20.50
2017-11-23T06:20:00.152Z,20.49
2017-11-23T06:20:31.773Z,20.48
2017-11-23T06:21:03.495Z,20.49
2017-11-23T06:21:35.140Z,20.49
2017-11-23T06:22:06.779Z,20.48
2017-11-23T06:22:38.396Z,20.46
2017-11-23T06:23:10.005Z,20.45
2017-11-23T06:23:41.609Z,20.45
2017-11-23T06:24:13.346Z,20.44
2017-11-23T06:24:44.988Z,20.44
2017-11-23T06:25:16.629Z,20.43
2017-11-23T06:25:48.278Z,20.44
2017-11-23T06:26:19.932Z,20.42
2017-11-23T06:26:51.560Z,20.40
2017-11-23T06:27:23.169Z,20.39
2017-11-23T06:27:54.776Z,20.39
2017-11-23T06:28:26.380Z,20.40
2017-11-23T06:28:57.989Z,20.37
2017-11-23T06:29:29.597Z,20.38
2017-11-23T06:30:01.204Z,20.39
2017-11-23T06:30:32.808Z,20.38
2017-11-23T06:31:04.420Z,20.39
2017-11-23T06:31:36.070Z,20.38
2017-11-23T06:32:07.676Z,20.38
2017-11-23T06:32:39.309Z,20.37
2017-11-23T06:33:10.953Z,20.38
2017-11-23T06:33:42.594Z,20.38
2017-11-23T06:34:14.196Z,20.38
2017-11-23T06:34:45.801Z,20.37
2017-11-23T06:35:17.518Z,20.37
2017-11-23T06:35:49.160Z,20.38
2017-11-23T06:36:20.813Z,20.38
2017-11-23T06:36:52.443Z,20.38
2017-11-23T06:37:24.086Z,20.37
2017-11-23T06:37:55.729Z,20.38
2017-11-23T06:38:27.337Z,20.36
2017-11-23T06:38:58.945Z,20.37
2017-11-23T06:39:30.653Z,20.36
2017-11-23T06:40:02.301Z,20.37
2017-11-23T06:40:33.938Z,20.34
2017-11-23T06:41:05.545Z,20.34
2017-11-23T06:41:37.219Z,20.33
2017-11-23T06:42:08.863Z,20.31
2017-11-23T06:42:40.506Z,20.31
2017-11-23T06:43:12.147Z,20.33
2017-11-23T06:43:43.758Z,20.31
2017-11-23T06:44:15.369Z,20.32
2017-11-23T06:44:46.981Z,20.32
2017-11-23T06:45:18.712Z,20.32
2017-11-23T06:45:50.357Z,20.33
2017-11-23T06:46:21.998Z,20.34
2017-11-23T06:46:53.613Z,20.35
2017-11-23T06:47:25.282Z,20.35